Relevés horaires Spa / La Sauveniere (Belgique)


Relevés horaires à Spa / La Sauveniere - Vendredi 16 Avr. 2021
Heure UTC1 Température [°C] Vent [km/h] Hum. [%] Pres.4 [hPa] Visi. [Km] Nébu. [octa] Préc.5 [mm] Cond.
2m. Res. Ros. Dir.2 Vit. Moy. Raf.3
23:00 2.0 2.0 -3.1 E 3.7 3.7 3.7 69 1027(-0.3/3h) 40 0/8 -- --
22:00 2.7 2.7 -3.0 E 1.9 1.9 3.7 66 1027(0.2/3h) 45 0/8 -- --
21:00 3.1 3.1 -3.5 E 1.9 3.7 9.3 62 1027(0.5/3h) 45 0/8 -- --
20:00 3.5 3.5 -3.5 NNO 0.0 3.7 5.6 60 1026.9(0.4/3h) 45 0/8 -- --
19:00 4.2 4.2 -3.1 NNE 3.7 3.7 9.3 59 1026.4(0.0/3h) 45 0/8 -- --
18:00 6.1 6.1 -3.1 NNE 3.7 9.3 14.8 52 1025.8(-0.6/3h) 40 8/8 0/12h
--
17:00 7.0 6.1 -3.9 NNE 5.6 7.4 13.0 46 1025.7(-0.8/3h) 45 8/8 -- --
16:00 6.7 5.8 -3.2 N 5.6 7.4 14.8 49 1025.8(-1.1/3h) 40 8/8 -- --
15:00 6.2 5.2 -2.7 NNE 5.6 9.3 14.8 53 1026.4(-0.6/3h) 35 8/8 -- --
14:00 5.2 4.1 -2.3 N 5.6 7.4 11.1 58 1027(-0.4/3h) 30 8/8 -- --
13:00 4.7 3.5 -2.0 NE 5.6 9.3 14.8 62 1027.4(-0.3/3h) 35 8/8 -- --
12:00 5.1 2.9 -3.8 ENE 9.3 11.1 16.7 52 1027.3(-0.5/3h) 40 8/8 0/6h
--
11:00 5.2 3.1 -3.2 ENE 9.3 9.3 16.7 55 1027.4(-0.3/3h) 35 8/8 -- --
10:00 4.6 2.8 -3.9 NE 7.4 7.4 16.7 54 1027.8(0.2/3h) 40 8/8 -- --
09:00 3.5 1.5 -2.5 N 7.4 7.4 13.0 65 1028.1(0.3/3h) 35 8/8 -- --
08:00 3.5 1.5 -3.1 ENE 7.4 7.4 13.0 62 1028.1(0.3/3h) 30 7/8 -- --
07:00 1.6 1.6 -2.2 ENE 3.7 5.6 11.1 76 1028.2(0.2/3h) 35 0/8 -- --
06:00 0.5 -1.3 -2.7 E 5.6 5.6 7.4 79 1028.5(-0.1/3h) 25 5/8 0/12h
--
05:00 -0.4 -0.4 -3.8 ESE 3.7 3.7 5.6 78 1028.6(-0.4/3h) 30 0/8 -- --
04:00 -1.1 -1.1 -4.2 E 3.7 3.7 3.7 79 1028.6(-0.8/3h) 35 0/8 -- --
03:00 -0.8 -0.8 -5.5 ESE 1.9 1.9 3.7 70 1028.8(-0.9/3h) 45 0/8 -- --
02:00 0.0 0.0 -5.6 E 1.9 1.9 3.7 66 1028.9(-0.8/3h) 45 0/8 -- --
01:00 0.0 0.0 -5.8 E 1.9 1.9 3.7 65 1029.2(-0.6/3h) 45 0/8 -- --
00:00 0.5 0.5 -5.2 E 1.9 5.6 9.3 65 1029.5(-0.3/3h) 45 0/8 0/6h
0/24h
--

1 Coordinated Universal Time. Actuellement il est 18:00 locale et 17:00 UTC.

2 Le vent souffle depuis la direction indiquée vers la direction oposée.

3 Les rafales max. sont disponible 40 min après l'heure du relevé.

4 Pour les stations d'altitude (plus de 600m) le géopotentiel du niveau le plus proche de la pression obligatoire est indiqué.

5 Les stations disposant d'un diffuseur peuvent indiquer "trace". Cela signifie que des précipitations ont touchés le sol mais que la quantité est inférieure à 0.1 mm.

Récapitulatif de la journée
Température [°C] Vent [km/h] Ensoleillement4 [h] Precipitations totale5 [mm] Pression [Hpa]
Min1 Max.2 Moy.3 Max. Min Max.
-1.2 7.2 5.8 16.7 0 h 0 min 0 1025.7 1029.5

1 Température minimale relevée entre 18:00 UTC la veille et 18:00 UTC le jour donné.

2 Température maximale relevée entre 06:00 UTC le jour donné et 06:00 UTC le lendemain.

3 Vent moyen de la journée basé sur les relevés horaires.

4 Ensoleillement en heures relevé entre 06:00 UTC la veille et 06:00 UTC le jour donné.

5 Précipitations totales tombées entre 06:00 UTC la jour donné et 06:00 UTC le lendemain.

Graphiques horaires